Terminal Aerodrome Forecast
Issued by NWS Pittsburgh, PA

Current Version | Previous Version | Graphics & Text | Print | Product List | Glossary On
Versions: 1 2 3 4 5 6 7 8 9 10 11 12 13 14 15 16 17 18 19 20 21 22 23 24 25 26 27 28 29 30 31 32 33 34 35 36 37
424
FTUS41 KPBZ 022332
TAFPIT
TAF
KPIT 022332Z 0300/0406 12012KT P6SM BKN200
     FM030300 15010KT P6SM OVC100 WS020/17050KT
     FM030900 17012KT 6SM -SHRA BKN050 WS020/18055KT
     FM031200 18012G18KT 3SM SHRA BR OVC025
     FM031800 23013G22KT P6SM BKN040
     FM040000 25008KT P6SM BKN030=

USA.gov is the U.S. government's official web portal to all federal, state and local government web resources and services.